sensor_id;sensor_type;location;lat;lon;timestamp;P1;durP1;ratioP1;P2;durP2;ratioP2
37973;SDS011;23796;51.458;7.000;2024-01-30T00:00:02;6.00;;;3.72;;
37973;SDS011;23796;51.458;7.000;2024-01-30T00:02:30;9.32;;;4.10;;
37973;SDS011;23796;51.458;7.000;2024-01-30T00:04:58;7.43;;;4.18;;
37973;SDS011;23796;51.458;7.000;2024-01-30T00:07:24;7.25;;;3.92;;
37973;SDS011;23796;51.458;7.000;2024-01-30T00:09:52;6.18;;;4.05;;
37973;SDS011;23796;51.458;7.000;2024-01-30T00:12:18;6.05;;;4.28;;
37973;SDS011;23796;51.458;7.000;2024-01-30T00:14:43;8.38;;;3.97;;
37973;SDS011;23796;51.458;7.000;2024-01-30T00:17:09;7.30;;;4.65;;
37973;SDS011;23796;51.458;7.000;2024-01-30T00:19:35;5.47;;;3.78;;
37973;SDS011;23796;51.458;7.000;2024-01-30T00:22:00;7.88;;;3.78;;
37973;SDS011;23796;51.458;7.000;2024-01-30T00:24:26;6.47;;;4.10;;
37973;SDS011;23796;51.458;7.000;2024-01-30T00:26:51;6.65;;;4.18;;
37973;SDS011;23796;51.458;7.000;2024-01-30T00:29:17;6.90;;;4.25;;
37973;SDS011;23796;51.458;7.000;2024-01-30T00:31:44;6.82;;;4.45;;
37973;SDS011;23796;51.458;7.000;2024-01-30T00:34:12;9.30;;;4.47;;
37973;SDS011;23796;51.458;7.000;2024-01-30T00:36:38;6.75;;;4.20;;
37973;SDS011;23796;51.458;7.000;2024-01-30T00:39:06;6.68;;;3.85;;
37973;SDS011;23796;51.458;7.000;2024-01-30T00:41:34;9.55;;;4.18;;
37973;SDS011;23796;51.458;7.000;2024-01-30T00:43:59;7.63;;;4.45;;
37973;SDS011;23796;51.458;7.000;2024-01-30T00:46:25;6.50;;;4.05;;
37973;SDS011;23796;51.458;7.000;2024-01-30T00:48:51;7.50;;;4.20;;
37973;SDS011;23796;51.458;7.000;2024-01-30T00:51:16;6.43;;;3.85;;
37973;SDS011;23796;51.458;7.000;2024-01-30T00:53:42;7.25;;;3.92;;
37973;SDS011;23796;51.458;7.000;2024-01-30T00:56:09;8.07;;;4.05;;
37973;SDS011;23796;51.458;7.000;2024-01-30T00:58:35;8.05;;;4.45;;
37973;SDS011;23796;51.458;7.000;2024-01-30T01:01:01;7.32;;;4.00;;
37973;SDS011;23796;51.458;7.000;2024-01-30T01:03:27;7.03;;;3.97;;
37973;SDS011;23796;51.458;7.000;2024-01-30T01:05:55;6.40;;;4.35;;
37973;SDS011;23796;51.458;7.000;2024-01-30T01:08:25;5.60;;;4.13;;
37973;SDS011;23796;51.458;7.000;2024-01-30T01:10:51;7.97;;;4.60;;
37973;SDS011;23796;51.458;7.000;2024-01-30T01:13:17;6.47;;;4.20;;
37973;SDS011;23796;51.458;7.000;2024-01-30T01:15:43;7.53;;;4.32;;
37973;SDS011;23796;51.458;7.000;2024-01-30T01:18:08;8.30;;;4.13;;
37973;SDS011;23796;51.458;7.000;2024-01-30T01:20:34;6.75;;;4.30;;
37973;SDS011;23796;51.458;7.000;2024-01-30T01:22:59;7.35;;;4.22;;
37973;SDS011;23796;51.458;7.000;2024-01-30T01:25:25;9.02;;;4.13;;
37973;SDS011;23796;51.458;7.000;2024-01-30T01:27:50;6.00;;;4.07;;
37973;SDS011;23796;51.458;7.000;2024-01-30T01:30:17;9.23;;;4.30;;
37973;SDS011;23796;51.458;7.000;2024-01-30T01:32:54;9.30;;;4.47;;
37973;SDS011;23796;51.458;7.000;2024-01-30T01:35:26;6.78;;;4.13;;
37973;SDS011;23796;51.458;7.000;2024-01-30T01:37:52;7.07;;;4.20;;
37973;SDS011;23796;51.458;7.000;2024-01-30T01:40:24;6.43;;;4.20;;
37973;SDS011;23796;51.458;7.000;2024-01-30T01:42:51;8.13;;;4.45;;
37973;SDS011;23796;51.458;7.000;2024-01-30T01:45:17;7.90;;;4.43;;
37973;SDS011;23796;51.458;7.000;2024-01-30T01:47:47;13.07;;;7.95;;
37973;SDS011;23796;51.458;7.000;2024-01-30T01:50:15;8.02;;;5.00;;
37973;SDS011;23796;51.458;7.000;2024-01-30T01:52:45;9.50;;;4.75;;
37973;SDS011;23796;51.458;7.000;2024-01-30T01:55:12;8.32;;;4.82;;
37973;SDS011;23796;51.458;7.000;2024-01-30T01:57:39;12.45;;;5.95;;
37973;SDS011;23796;51.458;7.000;2024-01-30T02:00:09;7.68;;;5.07;;
37973;SDS011;23796;51.458;7.000;2024-01-30T02:02:37;9.40;;;4.65;;
37973;SDS011;23796;51.458;7.000;2024-01-30T02:05:04;11.00;;;8.18;;
37973;SDS011;23796;51.458;7.000;2024-01-30T02:07:30;8.23;;;4.57;;
37973;SDS011;23796;51.458;7.000;2024-01-30T02:09:56;7.57;;;4.28;;
37973;SDS011;23796;51.458;7.000;2024-01-30T02:12:21;7.18;;;4.30;;
37973;SDS011;23796;51.458;7.000;2024-01-30T02:14:49;6.82;;;4.03;;
37973;SDS011;23796;51.458;7.000;2024-01-30T02:17:19;7.13;;;3.95;;
37973;SDS011;23796;51.458;7.000;2024-01-30T02:19:47;6.75;;;4.20;;
37973;SDS011;23796;51.458;7.000;2024-01-30T02:22:13;5.78;;;3.42;;
37973;SDS011;23796;51.458;7.000;2024-01-30T02:24:39;6.72;;;3.75;;
37973;SDS011;23796;51.458;7.000;2024-01-30T02:27:05;7.53;;;4.50;;
37973;SDS011;23796;51.458;7.000;2024-01-30T02:29:33;6.60;;;4.68;;
37973;SDS011;23796;51.458;7.000;2024-01-30T02:31:58;6.15;;;3.78;;
37973;SDS011;23796;51.458;7.000;2024-01-30T02:34:24;5.90;;;3.50;;
37973;SDS011;23796;51.458;7.000;2024-01-30T02:36:50;6.10;;;3.63;;
37973;SDS011;23796;51.458;7.000;2024-01-30T02:39:15;7.32;;;4.20;;
37973;SDS011;23796;51.458;7.000;2024-01-30T02:41:45;7.70;;;3.85;;
37973;SDS011;23796;51.458;7.000;2024-01-30T02:44:13;8.25;;;4.10;;
37973;SDS011;23796;51.458;7.000;2024-01-30T02:46:39;7.30;;;4.18;;
37973;SDS011;23796;51.458;7.000;2024-01-30T02:49:04;6.50;;;3.78;;
37973;SDS011;23796;51.458;7.000;2024-01-30T02:51:30;6.72;;;4.20;;
37973;SDS011;23796;51.458;7.000;2024-01-30T02:53:55;5.03;;;3.45;;
37973;SDS011;23796;51.458;7.000;2024-01-30T02:56:23;6.43;;;3.95;;
37973;SDS011;23796;51.458;7.000;2024-01-30T02:58:49;5.60;;;3.50;;
37973;SDS011;23796;51.458;7.000;2024-01-30T03:01:14;5.95;;;3.70;;
37973;SDS011;23796;51.458;7.000;2024-01-30T03:03:40;6.50;;;3.70;;
37973;SDS011;23796;51.458;7.000;2024-01-30T03:06:06;5.63;;;3.72;;
37973;SDS011;23796;51.458;7.000;2024-01-30T03:08:32;7.45;;;3.88;;
37973;SDS011;23796;51.458;7.000;2024-01-30T03:11:00;6.10;;;3.80;;
37973;SDS011;23796;51.458;7.000;2024-01-30T03:13:26;6.28;;;3.92;;
37973;SDS011;23796;51.458;7.000;2024-01-30T03:15:54;6.00;;;3.80;;
37973;SDS011;23796;51.458;7.000;2024-01-30T03:18:20;6.03;;;3.63;;
37973;SDS011;23796;51.458;7.000;2024-01-30T03:20:48;7.32;;;3.65;;
37973;SDS011;23796;51.458;7.000;2024-01-30T03:23:14;5.47;;;3.33;;
37973;SDS011;23796;51.458;7.000;2024-01-30T03:25:39;7.13;;;3.78;;
37973;SDS011;23796;51.458;7.000;2024-01-30T03:28:05;5.60;;;3.58;;
37973;SDS011;23796;51.458;7.000;2024-01-30T03:30:31;6.15;;;3.15;;
37973;SDS011;23796;51.458;7.000;2024-01-30T03:32:59;5.90;;;3.50;;
37973;SDS011;23796;51.458;7.000;2024-01-30T03:35:24;7.15;;;3.88;;
37973;SDS011;23796;51.458;7.000;2024-01-30T03:37:52;6.05;;;3.78;;
37973;SDS011;23796;51.458;7.000;2024-01-30T03:40:18;5.18;;;3.40;;
37973;SDS011;23796;51.458;7.000;2024-01-30T03:42:43;5.70;;;3.35;;
37973;SDS011;23796;51.458;7.000;2024-01-30T03:45:09;6.80;;;3.40;;
37973;SDS011;23796;51.458;7.000;2024-01-30T03:47:35;6.13;;;3.25;;
37973;SDS011;23796;51.458;7.000;2024-01-30T03:50:00;7.03;;;4.20;;
37973;SDS011;23796;51.458;7.000;2024-01-30T03:52:26;7.30;;;3.85;;
37973;SDS011;23796;51.458;7.000;2024-01-30T03:54:51;6.13;;;3.00;;
37973;SDS011;23796;51.458;7.000;2024-01-30T03:57:17;7.82;;;3.72;;
37973;SDS011;23796;51.458;7.000;2024-01-30T03:59:42;5.68;;;3.40;;
37973;SDS011;23796;51.458;7.000;2024-01-30T04:02:09;7.47;;;3.33;;
37973;SDS011;23796;51.458;7.000;2024-01-30T04:04:36;7.93;;;3.72;;
37973;SDS011;23796;51.458;7.000;2024-01-30T04:07:02;5.70;;;3.67;;
37973;SDS011;23796;51.458;7.000;2024-01-30T04:09:27;6.18;;;4.13;;
37973;SDS011;23796;51.458;7.000;2024-01-30T04:11:53;6.30;;;3.33;;
37973;SDS011;23796;51.458;7.000;2024-01-30T04:14:19;6.18;;;3.58;;
37973;SDS011;23796;51.458;7.000;2024-01-30T04:16:44;7.47;;;3.75;;
37973;SDS011;23796;51.458;7.000;2024-01-30T04:19:10;6.65;;;3.17;;
37973;SDS011;23796;51.458;7.000;2024-01-30T04:21:36;5.25;;;3.80;;
37973;SDS011;23796;51.458;7.000;2024-01-30T04:24:01;6.55;;;3.97;;
37973;SDS011;23796;51.458;7.000;2024-01-30T04:26:27;6.85;;;4.05;;
37973;SDS011;23796;51.458;7.000;2024-01-30T04:28:55;7.82;;;4.13;;
37973;SDS011;23796;51.458;7.000;2024-01-30T04:31:20;8.68;;;4.63;;
37973;SDS011;23796;51.458;7.000;2024-01-30T04:33:48;7.00;;;4.93;;
37973;SDS011;23796;51.458;7.000;2024-01-30T04:36:16;7.68;;;5.05;;
37973;SDS011;23796;51.458;7.000;2024-01-30T04:38:42;7.93;;;5.35;;
37973;SDS011;23796;51.458;7.000;2024-01-30T04:41:09;9.15;;;5.85;;
37973;SDS011;23796;51.458;7.000;2024-01-30T04:43:35;9.85;;;6.57;;
37973;SDS011;23796;51.458;7.000;2024-01-30T04:46:01;8.85;;;6.95;;
37973;SDS011;23796;51.458;7.000;2024-01-30T04:48:26;13.57;;;7.63;;
37973;SDS011;23796;51.458;7.000;2024-01-30T04:50:57;11.20;;;7.40;;
37973;SDS011;23796;51.458;7.000;2024-01-30T04:53:23;11.63;;;8.02;;
37973;SDS011;23796;51.458;7.000;2024-01-30T04:55:49;13.75;;;8.40;;
37973;SDS011;23796;51.458;7.000;2024-01-30T04:58:14;14.95;;;9.07;;
37973;SDS011;23796;51.458;7.000;2024-01-30T05:00:42;12.10;;;8.20;;
37973;SDS011;23796;51.458;7.000;2024-01-30T05:03:07;13.25;;;8.77;;
37973;SDS011;23796;51.458;7.000;2024-01-30T05:05:36;14.25;;;9.18;;
37973;SDS011;23796;51.458;7.000;2024-01-30T05:08:01;13.60;;;8.82;;
37973;SDS011;23796;51.458;7.000;2024-01-30T05:10:29;17.25;;;10.05;;
37973;SDS011;23796;51.458;7.000;2024-01-30T05:12:55;14.57;;;8.82;;
37973;SDS011;23796;51.458;7.000;2024-01-30T05:15:20;13.52;;;8.80;;
37973;SDS011;23796;51.458;7.000;2024-01-30T05:17:46;14.00;;;8.82;;
37973;SDS011;23796;51.458;7.000;2024-01-30T05:20:12;14.43;;;8.63;;
37973;SDS011;23796;51.458;7.000;2024-01-30T05:22:40;14.43;;;7.93;;
37973;SDS011;23796;51.458;7.000;2024-01-30T05:25:10;14.60;;;8.13;;
37973;SDS011;23796;51.458;7.000;2024-01-30T05:27:36;12.48;;;7.18;;
37973;SDS011;23796;51.458;7.000;2024-01-30T05:30:02;10.82;;;6.82;;
37973;SDS011;23796;51.458;7.000;2024-01-30T05:32:27;9.70;;;7.28;;
37973;SDS011;23796;51.458;7.000;2024-01-30T05:34:53;9.93;;;6.53;;
37973;SDS011;23796;51.458;7.000;2024-01-30T05:37:18;11.60;;;7.53;;
37973;SDS011;23796;51.458;7.000;2024-01-30T05:39:44;9.13;;;6.50;;
37973;SDS011;23796;51.458;7.000;2024-01-30T05:42:10;9.25;;;6.55;;
37973;SDS011;23796;51.458;7.000;2024-01-30T05:44:38;9.00;;;5.63;;
37973;SDS011;23796;51.458;7.000;2024-01-30T05:47:03;9.10;;;5.53;;
37973;SDS011;23796;51.458;7.000;2024-01-30T05:49:29;9.40;;;5.55;;
37973;SDS011;23796;51.458;7.000;2024-01-30T05:51:55;9.18;;;5.53;;
37973;SDS011;23796;51.458;7.000;2024-01-30T05:54:20;7.75;;;5.40;;
37973;SDS011;23796;51.458;7.000;2024-01-30T05:56:46;9.13;;;5.15;;
37973;SDS011;23796;51.458;7.000;2024-01-30T05:59:14;9.23;;;4.80;;
37973;SDS011;23796;51.458;7.000;2024-01-30T06:01:48;9.55;;;4.88;;
37973;SDS011;23796;51.458;7.000;2024-01-30T06:04:14;7.30;;;4.72;;
37973;SDS011;23796;51.458;7.000;2024-01-30T06:06:42;7.30;;;4.60;;
37973;SDS011;23796;51.458;7.000;2024-01-30T06:09:07;6.65;;;3.90;;
37973;SDS011;23796;51.458;7.000;2024-01-30T06:11:34;8.15;;;4.32;;
37973;SDS011;23796;51.458;7.000;2024-01-30T06:14:02;6.65;;;4.05;;
37973;SDS011;23796;51.458;7.000;2024-01-30T06:16:28;8.25;;;4.55;;
37973;SDS011;23796;51.458;7.000;2024-01-30T06:18:54;7.53;;;3.63;;
37973;SDS011;23796;51.458;7.000;2024-01-30T06:21:20;7.68;;;4.30;;
37973;SDS011;23796;51.458;7.000;2024-01-30T06:23:46;5.65;;;3.70;;
37973;SDS011;23796;51.458;7.000;2024-01-30T06:26:12;7.90;;;4.10;;
37973;SDS011;23796;51.458;7.000;2024-01-30T06:28:38;6.45;;;3.33;;
37973;SDS011;23796;51.458;7.000;2024-01-30T06:31:03;6.75;;;3.90;;
37973;SDS011;23796;51.458;7.000;2024-01-30T06:33:32;6.85;;;3.90;;
37973;SDS011;23796;51.458;7.000;2024-01-30T06:35:57;5.63;;;3.28;;
37973;SDS011;23796;51.458;7.000;2024-01-30T06:38:23;6.97;;;3.75;;
37973;SDS011;23796;51.458;7.000;2024-01-30T06:40:51;6.07;;;3.70;;
37973;SDS011;23796;51.458;7.000;2024-01-30T06:43:18;6.05;;;3.53;;
37973;SDS011;23796;51.458;7.000;2024-01-30T06:45:44;7.95;;;3.45;;
37973;SDS011;23796;51.458;7.000;2024-01-30T06:48:12;6.00;;;3.25;;
37973;SDS011;23796;51.458;7.000;2024-01-30T06:50:37;6.40;;;3.20;;
37973;SDS011;23796;51.458;7.000;2024-01-30T06:53:03;6.20;;;3.50;;
37973;SDS011;23796;51.458;7.000;2024-01-30T06:55:28;6.32;;;3.10;;
37973;SDS011;23796;51.458;7.000;2024-01-30T06:57:54;5.57;;;3.47;;
37973;SDS011;23796;51.458;7.000;2024-01-30T07:00:20;7.85;;;3.67;;
37973;SDS011;23796;51.458;7.000;2024-01-30T07:02:48;6.10;;;3.50;;
37973;SDS011;23796;51.458;7.000;2024-01-30T07:05:14;6.15;;;3.47;;
37973;SDS011;23796;51.458;7.000;2024-01-30T07:07:40;6.65;;;3.53;;
37973;SDS011;23796;51.458;7.000;2024-01-30T07:10:06;5.40;;;3.70;;
37973;SDS011;23796;51.458;7.000;2024-01-30T07:12:34;6.78;;;3.83;;
37973;SDS011;23796;51.458;7.000;2024-01-30T07:15:00;6.90;;;3.63;;
37973;SDS011;23796;51.458;7.000;2024-01-30T07:17:33;7.53;;;3.90;;
37973;SDS011;23796;51.458;7.000;2024-01-30T07:19:59;5.60;;;3.10;;
37973;SDS011;23796;51.458;7.000;2024-01-30T07:22:24;7.15;;;3.90;;
37973;SDS011;23796;51.458;7.000;2024-01-30T07:24:50;5.90;;;3.65;;
37973;SDS011;23796;51.458;7.000;2024-01-30T07:27:16;6.63;;;3.60;;
37973;SDS011;23796;51.458;7.000;2024-01-30T07:29:43;6.53;;;3.70;;
37973;SDS011;23796;51.458;7.000;2024-01-30T07:32:09;6.28;;;3.38;;
37973;SDS011;23796;51.458;7.000;2024-01-30T07:34:34;7.00;;;4.15;;
37973;SDS011;23796;51.458;7.000;2024-01-30T07:37:01;4.70;;;3.10;;
37973;SDS011;23796;51.458;7.000;2024-01-30T07:39:27;10.05;;;3.80;;
37973;SDS011;23796;51.458;7.000;2024-01-30T07:41:53;8.00;;;4.30;;
37973;SDS011;23796;51.458;7.000;2024-01-30T07:44:18;7.47;;;3.80;;
37973;SDS011;23796;51.458;7.000;2024-01-30T07:46:46;7.88;;;4.25;;
37973;SDS011;23796;51.458;7.000;2024-01-30T07:49:12;6.75;;;3.65;;
37973;SDS011;23796;51.458;7.000;2024-01-30T07:51:39;6.82;;;3.90;;
37973;SDS011;23796;51.458;7.000;2024-01-30T07:54:05;8.45;;;4.03;;
37973;SDS011;23796;51.458;7.000;2024-01-30T07:56:31;5.68;;;3.63;;
37973;SDS011;23796;51.458;7.000;2024-01-30T07:58:56;7.22;;;3.45;;
37973;SDS011;23796;51.458;7.000;2024-01-30T08:01:22;7.68;;;3.60;;
37973;SDS011;23796;51.458;7.000;2024-01-30T08:03:47;8.48;;;3.70;;
37973;SDS011;23796;51.458;7.000;2024-01-30T08:06:15;5.47;;;3.75;;
37973;SDS011;23796;51.458;7.000;2024-01-30T08:08:41;7.15;;;3.83;;
37973;SDS011;23796;51.458;7.000;2024-01-30T08:11:06;7.05;;;4.00;;
37973;SDS011;23796;51.458;7.000;2024-01-30T08:13:32;7.63;;;4.32;;
37973;SDS011;23796;51.458;7.000;2024-01-30T08:15:58;6.60;;;3.80;;
37973;SDS011;23796;51.458;7.000;2024-01-30T08:18:23;7.30;;;3.80;;
37973;SDS011;23796;51.458;7.000;2024-01-30T08:20:49;6.25;;;3.80;;
37973;SDS011;23796;51.458;7.000;2024-01-30T08:23:15;6.57;;;3.97;;
37973;SDS011;23796;51.458;7.000;2024-01-30T08:25:40;6.40;;;3.60;;
37973;SDS011;23796;51.458;7.000;2024-01-30T08:28:08;6.45;;;3.72;;
37973;SDS011;23796;51.458;7.000;2024-01-30T08:30:33;6.10;;;3.72;;
37973;SDS011;23796;51.458;7.000;2024-01-30T08:32:59;6.75;;;3.78;;
37973;SDS011;23796;51.458;7.000;2024-01-30T08:35:25;8.40;;;4.25;;
37973;SDS011;23796;51.458;7.000;2024-01-30T08:37:50;7.75;;;4.40;;
37973;SDS011;23796;51.458;7.000;2024-01-30T08:40:19;7.65;;;4.25;;
37973;SDS011;23796;51.458;7.000;2024-01-30T08:42:45;6.05;;;3.65;;
37973;SDS011;23796;51.458;7.000;2024-01-30T08:45:10;6.65;;;3.72;;
37973;SDS011;23796;51.458;7.000;2024-01-30T08:47:36;7.00;;;4.07;;
37973;SDS011;23796;51.458;7.000;2024-01-30T08:50:07;7.35;;;3.67;;
37973;SDS011;23796;51.458;7.000;2024-01-30T08:52:33;7.00;;;4.07;;
37973;SDS011;23796;51.458;7.000;2024-01-30T08:54:59;5.97;;;3.63;;
37973;SDS011;23796;51.458;7.000;2024-01-30T08:57:25;7.43;;;3.88;;
37973;SDS011;23796;51.458;7.000;2024-01-30T08:59:53;5.68;;;4.00;;
37973;SDS011;23796;51.458;7.000;2024-01-30T09:02:19;8.98;;;4.43;;
37973;SDS011;23796;51.458;7.000;2024-01-30T09:04:45;6.07;;;3.53;;
37973;SDS011;23796;51.458;7.000;2024-01-30T09:07:10;8.25;;;4.28;;
37973;SDS011;23796;51.458;7.000;2024-01-30T09:09:38;9.20;;;4.47;;
37973;SDS011;23796;51.458;7.000;2024-01-30T09:12:07;6.88;;;4.30;;
37973;SDS011;23796;51.458;7.000;2024-01-30T09:14:36;6.15;;;4.00;;
37973;SDS011;23796;51.458;7.000;2024-01-30T09:17:05;6.28;;;4.00;;
37973;SDS011;23796;51.458;7.000;2024-01-30T09:19:33;8.95;;;4.35;;
37973;SDS011;23796;51.458;7.000;2024-01-30T09:21:59;6.50;;;3.85;;
37973;SDS011;23796;51.458;7.000;2024-01-30T09:24:25;6.72;;;3.33;;
37973;SDS011;23796;51.458;7.000;2024-01-30T09:26:51;8.48;;;4.50;;
37973;SDS011;23796;51.458;7.000;2024-01-30T09:29:17;6.70;;;3.88;;
37973;SDS011;23796;51.458;7.000;2024-01-30T09:31:43;7.05;;;4.20;;
37973;SDS011;23796;51.458;7.000;2024-01-30T09:34:10;5.68;;;3.80;;
37973;SDS011;23796;51.458;7.000;2024-01-30T09:36:35;7.22;;;3.72;;
37973;SDS011;23796;51.458;7.000;2024-01-30T09:39:01;6.70;;;3.92;;
37973;SDS011;23796;51.458;7.000;2024-01-30T09:41:29;7.63;;;4.43;;
37973;SDS011;23796;51.458;7.000;2024-01-30T09:44:06;6.85;;;4.38;;
37973;SDS011;23796;51.458;7.000;2024-01-30T09:46:34;6.82;;;3.83;;
37973;SDS011;23796;51.458;7.000;2024-01-30T09:49:00;8.57;;;4.55;;
37973;SDS011;23796;51.458;7.000;2024-01-30T09:51:27;8.10;;;4.00;;
37973;SDS011;23796;51.458;7.000;2024-01-30T09:53:54;7.25;;;4.13;;
37973;SDS011;23796;51.458;7.000;2024-01-30T09:56:21;6.68;;;3.70;;
37973;SDS011;23796;51.458;7.000;2024-01-30T09:58:47;6.20;;;3.63;;
37973;SDS011;23796;51.458;7.000;2024-01-30T10:01:15;6.00;;;3.50;;
37973;SDS011;23796;51.458;7.000;2024-01-30T10:03:43;4.65;;;3.38;;
37973;SDS011;23796;51.458;7.000;2024-01-30T10:06:12;14.10;;;4.15;;
37973;SDS011;23796;51.458;7.000;2024-01-30T10:08:39;8.95;;;3.80;;
37973;SDS011;23796;51.458;7.000;2024-01-30T10:11:05;7.38;;;4.15;;
37973;SDS011;23796;51.458;7.000;2024-01-30T10:13:31;7.00;;;3.60;;
37973;SDS011;23796;51.458;7.000;2024-01-30T10:15:57;9.57;;;4.15;;
37973;SDS011;23796;51.458;7.000;2024-01-30T10:18:23;8.93;;;3.67;;
37973;SDS011;23796;51.458;7.000;2024-01-30T10:20:49;8.27;;;3.75;;
37973;SDS011;23796;51.458;7.000;2024-01-30T10:23:14;7.68;;;3.58;;
37973;SDS011;23796;51.458;7.000;2024-01-30T10:25:40;6.75;;;3.60;;
37973;SDS011;23796;51.458;7.000;2024-01-30T10:28:06;6.53;;;3.40;;
37973;SDS011;23796;51.458;7.000;2024-01-30T10:30:32;8.85;;;3.95;;
37973;SDS011;23796;51.458;7.000;2024-01-30T10:33:00;7.45;;;4.03;;
37973;SDS011;23796;51.458;7.000;2024-01-30T10:35:25;5.85;;;3.13;;
37973;SDS011;23796;51.458;7.000;2024-01-30T10:37:51;6.50;;;3.65;;
37973;SDS011;23796;51.458;7.000;2024-01-30T10:40:19;5.53;;;3.65;;
37973;SDS011;23796;51.458;7.000;2024-01-30T10:42:51;5.60;;;3.05;;
37973;SDS011;23796;51.458;7.000;2024-01-30T10:45:20;8.10;;;3.67;;
37973;SDS011;23796;51.458;7.000;2024-01-30T10:47:50;9.45;;;3.75;;
37973;SDS011;23796;51.458;7.000;2024-01-30T10:50:19;6.30;;;3.30;;
37973;SDS011;23796;51.458;7.000;2024-01-30T10:52:45;6.95;;;3.70;;
37973;SDS011;23796;51.458;7.000;2024-01-30T10:55:12;7.90;;;3.70;;
37973;SDS011;23796;51.458;7.000;2024-01-30T10:57:40;5.88;;;3.72;;
37973;SDS011;23796;51.458;7.000;2024-01-30T11:00:07;9.15;;;4.20;;
37973;SDS011;23796;51.458;7.000;2024-01-30T11:02:36;6.10;;;3.63;;
37973;SDS011;23796;51.458;7.000;2024-01-30T11:05:07;8.13;;;3.80;;
37973;SDS011;23796;51.458;7.000;2024-01-30T11:07:33;7.40;;;3.65;;
37973;SDS011;23796;51.458;7.000;2024-01-30T11:12:26;10.52;;;3.58;;
37973;SDS011;23796;51.458;7.000;2024-01-30T11:15:06;7.20;;;3.40;;
37973;SDS011;23796;51.458;7.000;2024-01-30T11:20:30;8.57;;;4.15;;
37973;SDS011;23796;51.458;7.000;2024-01-30T11:22:56;9.00;;;3.80;;
37973;SDS011;23796;51.458;7.000;2024-01-30T11:25:23;8.18;;;4.30;;
37973;SDS011;23796;51.458;7.000;2024-01-30T11:27:50;12.07;;;4.00;;
37973;SDS011;23796;51.458;7.000;2024-01-30T11:30:28;8.00;;;4.18;;
37973;SDS011;23796;51.458;7.000;2024-01-30T11:35:40;7.97;;;4.13;;
37973;SDS011;23796;51.458;7.000;2024-01-30T11:38:10;6.75;;;3.58;;
37973;SDS011;23796;51.458;7.000;2024-01-30T11:40:38;8.30;;;4.03;;
37973;SDS011;23796;51.458;7.000;2024-01-30T11:43:05;7.95;;;3.88;;
37973;SDS011;23796;51.458;7.000;2024-01-30T11:45:32;9.70;;;3.72;;
37973;SDS011;23796;51.458;7.000;2024-01-30T11:47:59;9.50;;;4.25;;
37973;SDS011;23796;51.458;7.000;2024-01-30T11:50:28;8.18;;;4.30;;
37973;SDS011;23796;51.458;7.000;2024-01-30T11:53:04;9.43;;;4.30;;
37973;SDS011;23796;51.458;7.000;2024-01-30T11:55:32;6.68;;;3.67;;
37973;SDS011;23796;51.458;7.000;2024-01-30T11:58:00;10.93;;;5.07;;
37973;SDS011;23796;51.458;7.000;2024-01-30T12:00:29;7.47;;;4.18;;
37973;SDS011;23796;51.458;7.000;2024-01-30T12:02:58;10.70;;;4.40;;
37973;SDS011;23796;51.458;7.000;2024-01-30T12:05:26;9.45;;;3.60;;
37973;SDS011;23796;51.458;7.000;2024-01-30T12:07:52;7.32;;;4.13;;
37973;SDS011;23796;51.458;7.000;2024-01-30T12:10:18;8.10;;;4.13;;
37973;SDS011;23796;51.458;7.000;2024-01-30T12:12:47;9.65;;;4.78;;
37973;SDS011;23796;51.458;7.000;2024-01-30T12:15:14;9.25;;;4.05;;
37973;SDS011;23796;51.458;7.000;2024-01-30T12:17:42;8.25;;;3.90;;
37973;SDS011;23796;51.458;7.000;2024-01-30T12:20:12;6.93;;;3.72;;
37973;SDS011;23796;51.458;7.000;2024-01-30T12:22:40;8.20;;;3.93;;
37973;SDS011;23796;51.458;7.000;2024-01-30T12:25:10;7.75;;;4.07;;
37973;SDS011;23796;51.458;7.000;2024-01-30T12:27:38;10.60;;;4.18;;
37973;SDS011;23796;51.458;7.000;2024-01-30T12:30:08;8.13;;;4.15;;
37973;SDS011;23796;51.458;7.000;2024-01-30T12:32:35;9.38;;;5.13;;
37973;SDS011;23796;51.458;7.000;2024-01-30T12:35:01;10.10;;;4.80;;
37973;SDS011;23796;51.458;7.000;2024-01-30T12:37:27;7.53;;;3.92;;
37973;SDS011;23796;51.458;7.000;2024-01-30T12:39:54;10.00;;;5.40;;
37973;SDS011;23796;51.458;7.000;2024-01-30T12:42:20;9.18;;;4.00;;
37973;SDS011;23796;51.458;7.000;2024-01-30T12:44:49;9.93;;;5.13;;
37973;SDS011;23796;51.458;7.000;2024-01-30T12:47:15;11.13;;;5.25;;
37973;SDS011;23796;51.458;7.000;2024-01-30T12:49:42;8.98;;;4.18;;
37973;SDS011;23796;51.458;7.000;2024-01-30T12:52:09;9.55;;;4.57;;
37973;SDS011;23796;51.458;7.000;2024-01-30T12:54:39;9.43;;;4.90;;
37973;SDS011;23796;51.458;7.000;2024-01-30T12:57:05;11.23;;;5.43;;
37973;SDS011;23796;51.458;7.000;2024-01-30T12:59:31;17.77;;;5.43;;
37973;SDS011;23796;51.458;7.000;2024-01-30T13:01:57;10.07;;;5.00;;
37973;SDS011;23796;51.458;7.000;2024-01-30T13:04:24;10.15;;;4.72;;
37973;SDS011;23796;51.458;7.000;2024-01-30T13:06:49;10.82;;;4.75;;
37973;SDS011;23796;51.458;7.000;2024-01-30T13:09:17;11.52;;;4.68;;
37973;SDS011;23796;51.458;7.000;2024-01-30T13:11:43;8.23;;;5.20;;
37973;SDS011;23796;51.458;7.000;2024-01-30T13:14:08;7.90;;;4.47;;
37973;SDS011;23796;51.458;7.000;2024-01-30T13:16:34;9.75;;;4.35;;
37973;SDS011;23796;51.458;7.000;2024-01-30T13:19:00;6.93;;;4.03;;
37973;SDS011;23796;51.458;7.000;2024-01-30T13:21:27;8.13;;;4.47;;
37973;SDS011;23796;51.458;7.000;2024-01-30T13:23:55;7.35;;;4.28;;
37973;SDS011;23796;51.458;7.000;2024-01-30T13:26:20;9.43;;;4.75;;
37973;SDS011;23796;51.458;7.000;2024-01-30T13:28:48;7.80;;;4.30;;
37973;SDS011;23796;51.458;7.000;2024-01-30T13:31:14;9.80;;;5.60;;
37973;SDS011;23796;51.458;7.000;2024-01-30T13:33:40;9.55;;;4.72;;
37973;SDS011;23796;51.458;7.000;2024-01-30T13:36:06;9.07;;;4.80;;
37973;SDS011;23796;51.458;7.000;2024-01-30T13:38:33;10.85;;;4.72;;
37973;SDS011;23796;51.458;7.000;2024-01-30T13:40:59;8.18;;;4.72;;
37973;SDS011;23796;51.458;7.000;2024-01-30T13:43:25;10.00;;;4.85;;
37973;SDS011;23796;51.458;7.000;2024-01-30T13:45:51;10.32;;;4.60;;
37973;SDS011;23796;51.458;7.000;2024-01-30T13:48:17;9.63;;;5.20;;
37973;SDS011;23796;51.458;7.000;2024-01-30T13:50:43;9.38;;;4.65;;
37973;SDS011;23796;51.458;7.000;2024-01-30T13:53:08;9.52;;;4.65;;
37973;SDS011;23796;51.458;7.000;2024-01-30T13:55:34;8.73;;;4.75;;
37973;SDS011;23796;51.458;7.000;2024-01-30T13:58:00;12.18;;;4.85;;
37973;SDS011;23796;51.458;7.000;2024-01-30T14:00:26;9.35;;;4.70;;
37973;SDS011;23796;51.458;7.000;2024-01-30T14:02:53;7.50;;;4.40;;
37973;SDS011;23796;51.458;7.000;2024-01-30T14:05:23;7.95;;;5.07;;
37973;SDS011;23796;51.458;7.000;2024-01-30T14:07:49;7.15;;;4.32;;
37973;SDS011;23796;51.458;7.000;2024-01-30T14:10:15;8.00;;;4.82;;
37973;SDS011;23796;51.458;7.000;2024-01-30T14:12:41;9.27;;;4.78;;
37973;SDS011;23796;51.458;7.000;2024-01-30T14:15:08;9.68;;;5.00;;
37973;SDS011;23796;51.458;7.000;2024-01-30T14:17:35;8.45;;;4.50;;
37973;SDS011;23796;51.458;7.000;2024-01-30T14:20:01;8.70;;;4.93;;
37973;SDS011;23796;51.458;7.000;2024-01-30T14:22:28;8.00;;;4.75;;
37973;SDS011;23796;51.458;7.000;2024-01-30T14:24:54;8.18;;;4.38;;
37973;SDS011;23796;51.458;7.000;2024-01-30T14:27:21;10.35;;;4.85;;
37973;SDS011;23796;51.458;7.000;2024-01-30T14:29:48;8.88;;;4.85;;
37973;SDS011;23796;51.458;7.000;2024-01-30T14:32:16;8.40;;;4.40;;
37973;SDS011;23796;51.458;7.000;2024-01-30T14:34:41;6.00;;;3.80;;
37973;SDS011;23796;51.458;7.000;2024-01-30T14:37:09;7.65;;;4.45;;
37973;SDS011;23796;51.458;7.000;2024-01-30T14:39:38;7.15;;;4.43;;
37973;SDS011;23796;51.458;7.000;2024-01-30T14:42:05;10.57;;;4.43;;
37973;SDS011;23796;51.458;7.000;2024-01-30T14:44:34;8.63;;;4.68;;
37973;SDS011;23796;51.458;7.000;2024-01-30T14:47:00;10.10;;;4.90;;
37973;SDS011;23796;51.458;7.000;2024-01-30T14:49:28;9.27;;;4.35;;